Portada
METAR-TAF:

METAR-TAF

Aeropuertos :

La Palma, España

Aeropuerto de La Palma

latitud: 28-37N, longitud: 017-45W, altitud: 29 m

Observación

El informe se hizo hace 23 minutos, a las 06:00 UTC
Viento 9 kt del noroeste
Temperatura 16°C
Humedad 77%
Presión 1026 hPa
Visibilidad 10 km o más

METAR: GCLA 190600Z AUTO 32009KT 9999 FEW028/// BKN039/// 16/12 Q1026

Hora: 06:23 (06:23 UTC)

Pronóstico

El informe se hizo hace 4 horas y 23 minutos, a las 02:00 UTC
Pronóstico válido del 19 a las 03 UTC al 20 a las 03 UTC
Viento 9 kt del norte
Visibilidad 10 km o más
Cielo nuboso a una altura de 3000 ft
Probabilidad 30% :
Temporalmente
del 19 a las 07 UTC al 19 a las 11 UTC
llovizna

TAF: GCLA 190200Z 1903/2003 36009KT 9999 BKN030 TX21/1914Z TN16/1906Z PROB30 TEMPO 1907/1911 DZ

Observaciones y pronósticos meteorológicos de más de 4000 aeropuertos (mensajes METAR y TAF).

Los puntos amarillos y rojos representan las estaciones disponibles.

Ponga el ratón en el punto deseado para ver el nombre de la estación.

Haga clic para ver las observaciones y los pronósticos meteorológicos.

Para cambiar el mapa : haga clic en los botones verdes con una cruz de color negro para hacer un zoom, en el botón verde con un guión para alejar o en las flechas verdes para mapas adyacentes.


METAR-TAF: